Sioux Gateway Col. Bud Day Field
KSUX : now visible

Airfield :











YOU CAN JOIN US ON...

 
LOGIN :

Register | Disclaimer

   EN    FR    IT 

 









Legend :    VFR   Marginal VFR   IFR   Intensive IFR   Very Intensive IFR
Visi :
Ceiling :
>= 8 km
>= 3000ft
5 to 8 km
1000 to 3000 ft
1500m to 5 km
500 to 1000 ft
800 to 1500m
200 to 500 ft
< 800m
< 200 ft
Symbols :   Thunderstorms  Fog  Heavy snow  Heavy precipitations  Wind > 20 kt






- Airport Elevation : 1098 ft
- IATA code : SUX


KSUX - Sioux Gateway Col. Bud Day Field

CURRENT METAR :
  • 231452Z 00000KT 10SM CLR 01/M02 A2998 RMK AO2 SLP164 I3000 T00061017 53014 $

EXPIRED METARs :
  • 231352Z 00000KT 10SM CLR M01/M02 A2997 RMK AO2 SLP157 T10111022 $
  • 231252Z 00000KT 9SM CLR M02/M04 A2995 RMK AO2 SLP153 I1000 T10221039 $

TAF KSUX
Valid from the 23 at 12:00 until the 24 at 12:00 UTC


231120Z 2312/2412 00000KT P6SM FEW250
FM231500 33005KT P6SM FEW200
FM231700 34012KT P6SM FEW200
FM231800 34013G18KT P6SM FEW200
FM232300 35010KT P6SM FEW200
FM240200 VRB04KT P6SM SCT200



MET'MAP, your aeronautical weather chart ! - Copyright ORBIFLY December 2007 - Disclaimer

ORBIFLY MET'MAP TEAM :

Programming & Development : Alexandra Zaïnal
Concept & original design : Baudouin d'Aumeries
Assistance for programming : Marc-Olivier Méhu
Technical & hardware support : Manuel Goepfert

Contact : metmap@orbifly.com




SOURCES & CREDITS :

   NOAA       Earth
Advisory